Time;durP1;ratioP1;P1;durP2;ratioP2;P2;SDS_P1;SDS_P2;PMS_P1;PMS_P2;Temp;Humidity;BMP_temperature;BMP_pressure;BME280_temperature;BME280_humidity;BME280_pressure;Samples;Min_cycle;Max_cycle;Signal;HPM_P1;HPM_P2
2022/06/08 00:01:21;;;;;;;4.25;2.58;;;;;;;17.49;90.74;94114.78;5111227;28;20278;-63
2022/06/08 00:03:53;;;;;;;2.90;2.70;;;;;;;17.37;91.94;94100.03;5111133;28;20688;-61
2022/06/08 00:06:19;;;;;;;4.82;2.50;;;;;;;17.45;93.59;94087.03;5112620;28;20176;-60
2022/06/08 00:08:45;;;;;;;4.90;2.47;;;;;;;17.43;93.27;94084.63;5111167;28;20207;-61
2022/06/08 00:11:11;;;;;;;2.50;2.30;;;;;;;17.46;91.68;94092.00;5112256;28;20267;-60
2022/06/08 00:13:37;;;;;;;3.72;2.42;;;;;;;17.29;93.29;94079.59;5112765;28;20290;-64
2022/06/08 00:16:04;;;;;;;4.05;2.50;;;;;;;17.37;92.53;94087.94;5110900;28;20661;-62
2022/06/08 00:18:29;;;;;;;4.22;2.30;;;;;;;17.23;93.51;94072.63;5110826;28;20591;-62
2022/06/08 00:20:55;;;;;;;3.90;2.45;;;;;;;17.10;93.52;94078.44;5126230;22;20187;-60
2022/06/08 00:23:21;;;;;;;3.38;2.60;;;;;;;17.11;94.96;94068.97;5111065;28;20192;-62
2022/06/08 00:25:47;;;;;;;2.97;2.28;;;;;;;16.98;95.57;94066.25;5112023;28;20198;-60
2022/06/08 00:28:12;;;;;;;2.65;2.45;;;;;;;16.86;96.53;94060.00;5112273;28;20195;-64
2022/06/08 00:30:38;;;;;;;4.80;2.67;;;;;;;16.63;97.00;94058.38;5111001;28;20195;-61
2022/06/08 00:33:03;;;;;;;4.43;2.50;;;;;;;16.76;95.44;94079.06;5093759;28;20291;-59
2022/06/08 00:35:29;;;;;;;2.28;2.08;;;;;;;16.93;92.78;94102.72;5112214;28;20270;-61
2022/06/08 00:37:54;;;;;;;2.50;2.30;;;;;;;16.85;92.93;94096.94;5114996;28;20719;-64
2022/06/08 00:40:23;;;;;;;2.30;2.08;;;;;;;16.82;92.99;94087.03;5117554;28;20765;-63
2022/06/08 00:42:50;;;;;;;2.70;2.50;;;;;;;16.69;94.69;94057.66;5119020;27;20277;-64
2022/06/08 00:45:21;;;;;;;2.97;1.95;;;;;;;16.85;96.00;94058.44;5117606;28;20187;-62
2022/06/08 00:47:48;;;;;;;2.45;2.33;;;;;;;16.90;95.91;94059.47;5118845;27;20187;-61
2022/06/08 00:50:18;;;;;;;2.15;2.00;;;;;;;16.94;95.59;94067.59;5118715;27;20265;-59
2022/06/08 00:52:45;;;;;;;3.53;2.55;;;;;;;16.97;95.22;94064.66;5117368;28;20214;-61
2022/06/08 00:55:14;;;;;;;2.40;2.20;;;;;;;17.04;95.32;94063.75;5100422;28;20175;-61
2022/06/08 00:57:44;;;;;;;2.72;2.53;;;;;;;17.22;93.61;94086.44;5118758;27;20202;-61
2022/06/08 01:00:20;;;;;;;4.88;2.58;;;;;;;17.13;93.62;94077.28;5118553;27;20184;-64
2022/06/08 01:02:46;;;;;;;3.45;2.53;;;;;;;17.09;94.66;94069.13;5124520;22;20191;-63
2022/06/08 01:05:22;;;;;;;2.47;2.25;;;;;;;17.27;91.69;94107.25;5118672;27;20174;-61
2022/06/08 01:07:51;;;;;;;4.15;2.55;;;;;;;17.24;91.42;94105.03;5118733;27;20252;-60
2022/06/08 01:10:23;;;;;;;3.80;2.10;;;;;;;17.15;92.47;94083.03;5119017;27;20229;-60
2022/06/08 01:12:49;;;;;;;3.03;2.20;;;;;;;17.21;91.71;94092.56;5118609;27;20575;-62
2022/06/08 01:15:19;;;;;;;3.50;2.53;;;;;;;17.11;91.33;94090.28;5118401;27;20198;-60
2022/06/08 01:17:45;;;;;;;3.05;2.70;;;;;;;17.20;91.49;94085.81;5118314;27;20223;-60
2022/06/08 01:20:11;;;;;;;5.05;2.97;;;;;;;17.15;92.29;94075.31;5117216;28;20218;-61
2022/06/08 01:22:38;;;;;;;2.38;2.28;;;;;;;17.05;91.23;94082.53;5117069;28;20179;-64
2022/06/08 01:25:06;;;;;;;2.85;2.17;;;;;;;16.92;91.37;94075.47;5117107;28;20179;-63
2022/06/08 01:28:04;;;;;;;3.53;2.40;;;;;;;16.85;93.30;94058.44;5118358;27;20176;-63
2022/06/08 01:31:00;;;;;;;2.90;2.60;;;;;;;16.93;91.93;94078.84;5118444;27;20206;-61
2022/06/08 01:33:49;;;;;;;5.45;2.58;;;;;;;16.84;91.47;94073.03;5116929;28;20219;-61
2022/06/08 01:36:20;;;;;;;4.97;2.03;;;;;;;16.80;92.07;94064.09;5118642;27;20203;-62
2022/06/08 01:38:46;;;;;;;4.53;2.47;;;;;;;16.70;92.71;94061.81;5116932;28;20195;-59
2022/06/08 01:41:21;;;;;;;2.03;1.90;;;;;;;16.72;92.53;94059.06;5118161;27;20232;-62
2022/06/08 01:44:24;;;;;;;4.40;2.35;;;;;;;16.63;92.97;94044.75;5116811;28;20207;-60
2022/06/08 01:47:11;;;;;;;3.60;2.17;;;;;;;16.60;94.95;94038.19;5118287;28;20308;-60
2022/06/08 01:49:59;;;;;;;4.55;2.92;;;;;;;16.35;96.04;94033.53;5115326;27;20204;-63
2022/06/08 01:52:34;;;;;;;2.90;2.63;;;;;;;16.32;96.91;94037.25;5114731;28;20200;-63
2022/06/08 01:55:10;;;;;;;3.85;2.60;;;;;;;16.49;97.57;94040.44;5113511;28;20175;-64
2022/06/08 01:57:58;;;;;;;3.97;2.72;;;;;;;16.62;96.60;94049.09;5115146;28;20175;-64
2022/06/08 02:00:29;;;;;;;2.70;2.50;;;;;;;16.61;96.28;94047.50;5113458;28;20224;-62
2022/06/08 02:02:54;;;;;;;4.97;2.75;;;;;;;16.64;96.45;94049.69;5113388;28;20252;-64
2022/06/08 02:05:41;;;;;;;3.00;2.70;;;;;;;16.60;97.85;94034.88;5113380;28;20179;-61
2022/06/08 02:08:12;;;;;;;3.53;2.67;;;;;;;16.88;95.29;94058.03;5114984;28;20271;-59
2022/06/08 02:10:43;;;;;;;4.43;3.17;;;;;;;16.74;96.58;94049.44;5114482;28;20593;-61
2022/06/08 02:13:30;;;;;;;2.90;2.70;;;;;;;16.74;96.59;94052.78;5113124;28;20306;-63
2022/06/08 02:16:06;;;;;;;3.22;2.53;;;;;;;16.78;97.15;94042.94;5114413;28;20175;-61
2022/06/08 02:18:37;;;;;;;4.50;2.50;;;;;;;16.78;98.45;94030.13;5114521;28;20692;-63
2022/06/08 02:21:20;;;;;;;4.63;2.60;;;;;;;16.81;98.51;94029.72;5114481;28;20199;-59
2022/06/08 02:24:00;;;;;;;2.63;2.42;;;;;;;17.07;96.44;94049.75;5114700;28;20199;-61
2022/06/08 02:26:35;;;;;;;4.38;2.70;;;;;;;16.77;99.16;94031.88;5114325;28;20187;-62
2022/06/08 02:29:25;;;;;;;5.82;3.10;;;;;;;16.90;98.88;94032.97;5114826;28;20667;-62
2022/06/08 02:32:00;;;;;;;6.18;3.25;;;;;;;17.14;97.63;94042.88;5112929;28;20673;-62
2022/06/08 02:34:33;;;;;;;7.47;3.60;;;;;;;17.00;97.39;94041.19;5114642;28;20256;-59
2022/06/08 02:37:11;;;;;;;4.88;3.53;;;;;;;16.72;99.53;94021.34;5114163;27;20200;-62
2022/06/08 02:39:42;;;;;;;6.22;3.38;;;;;;;16.50;100.00;94022.31;5114080;28;20203;-62
2022/06/08 02:42:12;;;;;;;6.63;3.53;;;;;;;16.61;100.00;94034.69;5114030;28;20188;-60
2022/06/08 02:44:40;;;;;;;3.90;2.92;;;;;;;16.48;100.00;94028.59;5112500;28;20203;-62
2022/06/08 02:47:27;;;;;;;5.22;3.15;;;;;;;16.44;100.00;94048.66;5113842;27;20543;-62
2022/06/08 02:49:53;;;;;;;7.65;3.28;;;;;;;16.70;100.00;94051.53;5113987;28;20199;-61
2022/06/08 02:52:24;;;;;;;6.00;2.90;;;;;;;16.83;100.00;94038.06;5113703;28;20199;-60
2022/06/08 02:54:51;;;;;;;4.20;3.00;;;;;;;16.77;100.00;94042.16;5114134;28;20263;-60
2022/06/08 02:57:33;;;;;;;3.53;3.22;;;;;;;16.67;100.00;94041.66;5113590;28;20183;-62
2022/06/08 03:00:09;;;;;;;5.03;3.25;;;;;;;16.52;100.00;94042.66;5113885;28;20168;-60
2022/06/08 03:03:01;;;;;;;5.25;3.50;;;;;;;16.84;100.00;94059.38;5113884;28;20254;-61
2022/06/08 03:05:33;;;;;;;6.70;2.92;;;;;;;16.73;99.04;94071.72;5107410;28;20203;-63
2022/06/08 03:08:06;;;;;;;4.03;3.20;;;;;;;16.53;100.00;94065.56;5113798;28;20635;-64
2022/06/08 03:10:35;;;;;;;4.30;3.08;;;;;;;16.34;99.34;94080.72;5113542;28;20183;-60
2022/06/08 03:13:20;;;;;;;4.70;2.67;;;;;;;16.15;100.00;94058.16;5112028;28;20215;-60
2022/06/08 03:15:53;;;;;;;4.30;3.15;;;;;;;16.14;100.00;94061.72;5111453;28;20200;-60
2022/06/08 03:18:19;;;;;;;15.38;3.90;;;;;;;16.17;100.00;94069.84;5113613;27;20195;-61
2022/06/08 03:20:44;;;;;;;4.35;3.92;;;;;;;15.98;100.00;94073.72;5111957;28;20192;-63
2022/06/08 03:23:09;;;;;;;7.82;5.68;;;;;;;15.51;100.00;94070.69;5112095;28;20689;-62
2022/06/08 03:25:36;;;;;;;9.57;5.65;;;;;;;15.38;100.00;94077.31;5094920;28;20187;-61
2022/06/08 03:28:02;;;;;;;6.13;5.38;;;;;;;15.37;100.00;94079.06;5111808;28;20199;-65
2022/06/08 03:30:28;;;;;;;5.93;5.35;;;;;;;15.31;100.00;94086.69;5113159;28;20567;-64
2022/06/08 03:32:54;;;;;;;7.22;5.20;;;;;;;15.29;100.00;94086.81;5113490;28;20208;-63
2022/06/08 03:35:20;;;;;;;5.72;5.20;;;;;;;15.27;100.00;94086.19;5111791;28;20190;-62
2022/06/08 03:37:46;;;;;;;7.93;5.68;;;;;;;15.54;100.00;94087.44;5112869;28;20680;-64
2022/06/08 03:40:12;;;;;;;6.97;4.82;;;;;;;15.67;100.00;94088.47;5112952;28;20192;-61
2022/06/08 03:42:38;;;;;;;5.15;4.65;;;;;;;15.92;100.00;94096.69;5112426;28;20172;-64
2022/06/08 03:45:05;;;;;;;10.15;4.38;;;;;;;16.18;100.00;94091.94;5111457;28;20209;-63
2022/06/08 03:47:35;;;;;;;8.50;4.65;;;;;;;16.25;100.00;94084.34;5111431;28;20644;-60
2022/06/08 03:50:04;;;;;;;8.73;5.65;;;;;;;16.12;100.00;94084.94;5112688;28;20598;-61
2022/06/08 03:52:35;;;;;;;6.30;4.32;;;;;;;16.29;100.00;94088.94;5111406;28;20219;-62
2022/06/08 03:55:03;;;;;;;7.00;4.50;;;;;;;16.35;100.00;94082.28;5111423;28;20211;-62
2022/06/08 03:57:30;;;;;;;6.10;4.75;;;;;;;16.52;100.00;94091.44;5111231;28;20183;-63
2022/06/08 03:59:56;;;;;;;8.40;5.15;;;;;;;16.64;100.00;94097.69;5111367;28;20187;-63
2022/06/08 04:02:23;;;;;;;7.28;4.60;;;;;;;16.83;100.00;94104.03;5112625;28;20197;-59
2022/06/08 04:04:49;;;;;;;6.65;4.72;;;;;;;16.92;100.00;94102.91;5111574;28;20220;-60
2022/06/08 04:07:16;;;;;;;7.32;4.95;;;;;;;16.96;100.00;94107.53;5112587;28;20172;-60
2022/06/08 04:09:42;;;;;;;7.38;4.70;;;;;;;17.00;100.00;94108.75;5111142;28;20195;-60
2022/06/08 04:12:08;;;;;;;11.05;4.68;;;;;;;16.97;100.00;94092.91;5111654;28;20282;-66
2022/06/08 04:14:34;;;;;;;5.63;4.78;;;;;;;17.13;100.00;94102.97;5112301;28;20223;-61
2022/06/08 04:17:01;;;;;;;6.30;4.35;;;;;;;17.05;100.00;94097.94;5110961;28;20224;-61
2022/06/08 04:19:27;;;;;;;7.25;4.55;;;;;;;17.09;100.00;94120.47;5112820;28;20566;-60
2022/06/08 04:21:52;;;;;;;8.50;4.38;;;;;;;17.07;100.00;94095.97;5112284;28;20184;-63
2022/06/08 04:24:19;;;;;;;7.13;4.65;;;;;;;17.04;100.00;94104.84;5110759;28;20204;-63
2022/06/08 04:26:45;;;;;;;5.57;4.10;;;;;;;17.01;100.00;94079.50;5112042;28;20184;-61
2022/06/08 04:29:10;;;;;;;4.70;4.10;;;;;;;17.14;100.00;94100.19;5112536;28;20211;-61
2022/06/08 04:31:36;;;;;;;5.40;4.60;;;;;;;17.24;98.14;94120.44;5112033;28;20706;-63
2022/06/08 04:34:04;;;;;;;11.85;4.38;;;;;;;17.21;100.00;94077.91;5112237;28;20196;-60
2022/06/08 04:36:31;;;;;;;6.57;4.50;;;;;;;17.39;100.00;94103.19;5112102;28;20236;-62
2022/06/08 04:38:57;;;;;;;5.40;4.38;;;;;;;17.38;98.23;94117.81;5111951;28;20199;-62
2022/06/08 04:41:22;;;;;;;7.10;4.32;;;;;;;17.39;100.00;94062.84;5110618;28;20249;-59
2022/06/08 04:43:48;;;;;;;7.30;4.35;;;;;;;17.49;98.26;94111.44;5110669;28;20692;-61
2022/06/08 04:46:16;;;;;;;9.27;4.50;;;;;;;17.58;100.00;94087.16;5110999;28;20237;-62
2022/06/08 04:48:47;;;;;;;4.88;3.60;;;;;;;17.42;96.97;94118.22;5110984;28;20195;-60
2022/06/08 04:51:14;;;;;;;4.97;3.00;;;;;;;17.44;96.29;94106.00;5112192;28;20194;-59
2022/06/08 04:53:41;;;;;;;3.30;2.85;;;;;;;17.36;94.46;94129.25;5112107;28;20204;-61
2022/06/08 04:56:09;;;;;;;5.80;3.35;;;;;;;17.01;100.00;94071.81;5111403;28;20712;-60
2022/06/08 04:58:35;;;;;;;4.18;3.70;;;;;;;17.11;97.37;94110.06;5110279;28;20203;-63
2022/06/08 05:01:01;;;;;;;5.93;3.17;;;;;;;17.12;97.66;94101.34;5093430;28;20278;-61
2022/06/08 05:03:27;;;;;;;5.22;3.15;;;;;;;17.10;99.82;94083.56;5111912;28;20207;-62
2022/06/08 05:05:53;;;;;;;4.40;3.08;;;;;;;17.18;100.00;94078.31;5110551;28;20545;-60
2022/06/08 05:08:23;;;;;;;5.15;4.15;;;;;;;17.29;97.77;94107.84;5111675;28;20302;-61
2022/06/08 05:10:50;;;;;;;9.00;4.13;;;;;;;17.17;99.56;94086.19;5110524;28;20668;-63
2022/06/08 05:13:16;;;;;;;5.47;3.70;;;;;;;17.36;99.34;94093.28;5111956;28;20216;-61
2022/06/08 05:15:43;;;;;;;6.28;4.65;;;;;;;17.49;97.73;94114.00;5110342;28;20179;-63
2022/06/08 05:18:10;;;;;;;7.40;4.57;;;;;;;17.48;100.00;94076.38;5111499;28;20203;-60
2022/06/08 05:20:38;;;;;;;5.85;3.67;;;;;;;17.56;100.00;94083.97;5110449;28;20188;-63
2022/06/08 05:23:05;;;;;;;5.63;4.10;;;;;;;17.58;98.14;94105.16;5111442;28;20769;-60
2022/06/08 05:25:35;;;;;;;12.60;4.70;;;;;;;17.60;98.60;94095.47;5115680;28;20176;-61
2022/06/08 05:28:01;;;;;;;9.77;4.30;;;;;;;17.69;99.65;94084.09;5115718;28;20288;-62
2022/06/08 05:30:27;;;;;;;8.18;4.07;;;;;;;17.78;99.49;94100.97;5114026;28;20238;-61
2022/06/08 05:32:53;;;;;;;8.98;5.10;;;;;;;17.82;98.04;94112.47;5114006;28;20772;-63
2022/06/08 05:35:20;;;;;;;10.50;5.10;;;;;;;17.85;99.56;94104.38;5114156;28;20272;-60
2022/06/08 05:37:46;;;;;;;13.02;6.10;;;;;;;17.99;98.85;94111.22;5115201;28;20198;-61
2022/06/08 05:40:12;;;;;;;10.10;6.35;;;;;;;18.20;97.21;94125.78;5115245;28;20604;-60
2022/06/08 05:42:38;;;;;;;11.63;7.10;;;;;;;18.32;94.42;94153.38;5115273;28;20179;-59
2022/06/08 05:45:09;;;;;;;10.77;5.57;;;;;;;18.17;97.34;94115.88;5115282;28;20179;-61
2022/06/08 05:47:34;;;;;;;13.20;5.95;;;;;;;18.18;96.51;94114.91;5113905;28;20179;-63
2022/06/08 05:50:00;;;;;;;12.05;5.50;;;;;;;18.35;93.02;94158.16;5115287;28;20194;-60
2022/06/08 05:52:26;;;;;;;8.57;4.45;;;;;;;18.31;91.74;94156.94;5115197;28;20205;-63
2022/06/08 05:54:52;;;;;;;11.07;5.55;;;;;;;18.45;92.06;94150.13;5115067;28;20532;-60
2022/06/08 05:57:17;;;;;;;7.82;4.35;;;;;;;18.65;90.30;94157.94;5115155;27;20198;-63
2022/06/08 05:59:43;;;;;;;10.65;4.65;;;;;;;18.63;89.00;94155.56;5114960;28;20191;-64
2022/06/08 06:02:13;;;;;;;6.35;4.85;;;;;;;18.78;100.00;94066.09;5114854;28;20172;-60
2022/06/08 06:04:40;;;;;;;7.60;4.90;;;;;;;19.47;100.00;94092.41;5114435;28;20234;-61
2022/06/08 06:07:05;;;;;;;8.52;4.35;;;;;;;19.91;92.43;94166.63;5114702;28;20216;-61
2022/06/08 06:09:32;;;;;;;8.43;4.75;;;;;;;20.39;94.92;94133.66;5114923;28;20195;-63
2022/06/08 06:11:58;;;;;;;6.30;3.67;;;;;;;20.75;90.99;94141.69;5114344;28;20203;-61
2022/06/08 06:14:23;;;;;;;8.70;4.25;;;;;;;21.10;84.72;94224.91;5114641;28;20198;-61
2022/06/08 06:16:48;;;;;;;9.15;4.15;;;;;;;21.33;82.66;94207.91;5113286;28;20180;-60
2022/06/08 06:19:14;;;;;;;12.38;7.38;;;;;;;21.60;81.39;94201.59;5114606;28;20195;-61
2022/06/08 06:21:39;;;;;;;7.47;5.53;;;;;;;21.74;73.69;94291.09;5112727;28;20527;-61
2022/06/08 06:24:06;;;;;;;7.97;5.53;;;;;;;21.56;74.01;94249.59;5114421;28;20294;-64
2022/06/08 06:26:32;;;;;;;8.98;5.20;;;;;;;21.30;73.79;94257.47;5113972;28;20194;-61
2022/06/08 06:28:58;;;;;;;6.35;5.43;;;;;;;21.01;75.33;94208.03;5114395;28;20207;-63
2022/06/08 06:31:32;;;;;;;7.60;4.40;;;;;;;21.10;76.93;94180.97;5113810;27;20186;-63
2022/06/08 06:33:58;;;;;;;6.85;4.88;;;;;;;21.20;73.14;94241.59;5112946;28;20206;-60
2022/06/08 06:36:24;;;;;;;6.75;5.43;;;;;;;21.05;73.62;94211.81;5113231;28;20172;-61
2022/06/08 06:38:49;;;;;;;16.77;12.85;;;;;;;21.04;80.34;94112.78;5114462;28;20282;-63
2022/06/08 06:41:16;;;;;;;5.15;4.18;;;;;;;21.16;79.70;94138.78;5114413;28;20644;-61
2022/06/08 06:43:42;;;;;;;5.65;4.30;;;;;;;21.43;71.72;94257.38;5112694;28;20276;-60
2022/06/08 06:46:13;;;;;;;8.90;5.05;;;;;;;21.48;73.55;94217.97;5112713;28;20211;-61
2022/06/08 06:48:38;;;;;;;4.50;3.45;;;;;;;21.41;74.22;94192.13;5114220;28;20214;-61
2022/06/08 06:51:04;;;;;;;22.88;4.15;;;;;;;21.38;75.20;94177.06;5112735;28;20195;-61
2022/06/08 06:53:30;;;;;;;10.50;5.35;;;;;;;21.49;75.25;94171.19;5114110;28;20226;-62
2022/06/08 06:55:55;;;;;;;7.25;5.53;;;;;;;21.57;72.91;94196.81;5095561;28;20180;-60
2022/06/08 06:58:22;;;;;;;6.28;3.95;;;;;;;21.67;71.80;94210.09;5113779;27;20252;-59
2022/06/08 07:00:48;;;;;;;6.80;3.45;;;;;;;21.61;76.40;94127.38;5113922;28;20709;-63
2022/06/08 07:03:14;;;;;;;5.68;3.53;;;;;;;21.74;75.63;94143.59;5113690;28;20199;-65
2022/06/08 07:05:39;;;;;;;6.28;3.58;;;;;;;21.80;71.96;94209.22;5113786;28;20184;-61
2022/06/08 07:08:06;;;;;;;13.07;10.35;;;;;;;22.10;71.66;94206.88;5112259;28;20225;-64
2022/06/08 07:10:31;;;;;;;9.20;5.13;;;;;;;21.88;71.74;94185.72;5113713;28;20180;-63
2022/06/08 07:12:57;;;;;;;8.25;4.35;;;;;;;22.01;72.44;94180.47;5113326;28;20597;-65
2022/06/08 07:15:23;;;;;;;7.20;4.40;;;;;;;22.11;69.07;94248.09;5112187;28;20672;-62
2022/06/08 07:17:50;;;;;;;6.68;4.13;;;;;;;22.32;70.17;94231.41;5113545;28;20191;-61
2022/06/08 07:20:18;;;;;;;7.25;3.10;;;;;;;22.30;64.86;94316.31;5111921;28;20176;-61
2022/06/08 07:22:44;;;;;;;4.43;3.50;;;;;;;22.45;65.94;94276.13;5112086;28;20194;-61
2022/06/08 07:25:12;;;;;;;5.80;3.78;;;;;;;22.45;64.51;94309.81;5113221;28;20172;-64
2022/06/08 07:27:38;;;;;;;7.30;3.40;;;;;;;22.51;63.27;94337.47;5111983;28;20187;-61
2022/06/08 07:30:05;;;;;;;5.60;3.20;;;;;;;22.43;62.65;94347.28;5113302;28;20175;-61
2022/06/08 07:32:31;;;;;;;6.20;3.25;;;;;;;22.27;67.14;94231.25;5113282;28;20249;-61
2022/06/08 07:34:56;;;;;;;5.75;2.67;;;;;;;22.19;63.32;94320.34;5113310;28;20661;-63
2022/06/08 07:37:23;;;;;;;3.70;2.72;;;;;;;22.28;61.61;94352.00;5113020;28;20168;-64
2022/06/08 07:39:49;;;;;;;4.00;2.92;;;;;;;22.25;63.82;94287.63;5119400;22;20234;-60
2022/06/08 07:42:14;;;;;;;3.60;2.88;;;;;;;22.42;65.96;94257.63;5112818;28;20167;-60
2022/06/08 07:44:40;;;;;;;4.20;2.67;;;;;;;22.62;67.15;94229.00;5112734;28;20203;-60
2022/06/08 07:47:06;;;;;;;7.55;3.13;;;;;;;22.81;64.15;94285.81;5112136;28;20258;-61
2022/06/08 07:49:37;;;;;;;3.25;2.95;;;;;;;22.98;61.92;94337.94;5113526;28;20286;-61
2022/06/08 07:52:13;;;;;;;4.30;3.13;;;;;;;23.15;66.48;94222.22;5112725;28;20191;-60
2022/06/08 07:54:40;;;;;;;7.32;2.70;;;;;;;23.34;55.06;94472.94;5111560;28;20223;-61
2022/06/08 07:57:08;;;;;;;4.22;2.40;;;;;;;23.05;53.94;94442.41;5112758;28;20167;-63
2022/06/08 07:59:36;;;;;;;3.80;2.45;;;;;;;23.09;55.46;94384.69;5112473;27;20680;-61
2022/06/08 08:02:04;;;;;;;4.68;2.80;;;;;;;23.25;61.56;94246.66;5112609;28;20172;-61
2022/06/08 08:04:29;;;;;;;7.88;2.30;;;;;;;23.46;57.32;94338.09;5110873;28;20738;-64
2022/06/08 08:06:55;;;;;;;9.32;2.95;;;;;;;23.71;56.54;94342.22;5112546;28;20718;-61
2022/06/08 08:09:22;;;;;;;7.65;3.83;;;;;;;23.65;57.31;94321.50;5111423;28;20211;-63
2022/06/08 08:11:53;;;;;;;3.83;2.42;;;;;;;23.37;54.46;94399.06;5112470;28;20201;-60
2022/06/08 08:14:20;;;;;;;5.30;2.97;;;;;;;23.22;57.37;94326.72;5111341;28;20211;-64
2022/06/08 08:16:47;;;;;;;3.72;2.33;;;;;;;22.97;53.48;94395.97;5112568;28;20172;-62
2022/06/08 08:19:17;;;;;;;2.30;2.10;;;;;;;22.73;58.00;94278.31;5112799;28;20627;-62
2022/06/08 08:21:44;;;;;;;6.22;2.13;;;;;;;22.76;57.40;94283.09;5112225;28;20187;-62
2022/06/08 08:24:09;;;;;;;3.75;2.08;;;;;;;23.03;57.18;94294.78;5112424;28;20199;-61
2022/06/08 08:26:35;;;;;;;4.63;2.35;;;;;;;23.20;56.65;94298.41;5118286;22;20587;-63
2022/06/08 08:29:02;;;;;;;3.78;2.60;;;;;;;23.21;52.45;94408.16;5112033;28;20194;-61
2022/06/08 08:31:27;;;;;;;5.00;2.15;;;;;;;23.08;52.57;94392.72;5112445;28;20539;-61
2022/06/08 08:33:53;;;;;;;3.05;2.25;;;;;;;23.26;52.84;94384.97;5112025;28;20184;-60
2022/06/08 08:36:19;;;;;;;3.00;2.00;;;;;;;23.38;53.96;94330.59;5112702;28;20187;-61
2022/06/08 08:38:45;;;;;;;2.45;2.22;;;;;;;23.63;57.79;94237.88;5112062;28;20195;-63
2022/06/08 08:44:41;;;;;;;3.65;2.10;;;;;;;23.70;53.26;94342.41;5112352;28;20698;-60
2022/06/08 08:47:18;;;;;;;6.72;2.45;;;;;;;23.91;54.72;94295.22;5112066;28;20213;-60
2022/06/08 08:49:51;;;;;;;7.53;2.72;;;;;;;24.22;55.25;94287.19;5110767;28;20199;-60
2022/06/08 08:52:35;;;;;;;6.22;2.17;;;;;;;24.36;55.03;94295.63;5112052;28;20191;-61
2022/06/08 08:55:39;;;;;;;2.75;1.98;;;;;;;24.34;51.20;94386.78;5112274;28;20190;-64
2022/06/08 08:58:37;;;;;;;2.38;2.17;;;;;;;24.21;53.86;94309.03;5112688;22;20767;-65
2022/06/08 09:01:13;;;;;;;2.45;1.58;;;;;;;24.40;52.01;94344.31;5102544;28;20199;-62
2022/06/08 09:03:43;;;;;;;3.60;2.45;;;;;;;24.70;53.43;94305.28;5116706;28;20660;-60
2022/06/08 09:06:29;;;;;;;5.65;2.00;;;;;;;24.82;52.17;94350.34;5115996;28;20176;-59
2022/06/08 09:09:02;;;;;;;3.97;1.92;;;;;;;24.87;49.48;94400.66;5116267;28;20233;-61
2022/06/08 09:11:37;;;;;;;4.00;2.00;;;;;;;24.71;50.91;94344.06;5116206;28;20176;-62
2022/06/08 09:14:15;;;;;;;3.67;2.00;;;;;;;24.95;50.69;94369.13;5121987;22;20237;-62
2022/06/08 09:16:47;;;;;;;2.53;2.00;;;;;;;25.37;50.01;94369.03;5115900;28;20186;-60
2022/06/08 09:19:22;;;;;;;7.07;1.90;;;;;;;25.57;50.77;94340.84;5116260;28;20290;-60
2022/06/08 09:21:52;;;;;;;2.55;2.22;;;;;;;25.72;51.74;94326.31;5115582;28;20617;-62
2022/06/08 09:24:33;;;;;;;3.22;2.35;;;;;;;25.77;48.78;94390.75;5114607;28;20222;-60
2022/06/08 09:27:22;;;;;;;2.10;1.90;;;;;;;25.40;48.47;94391.97;5115539;28;20250;-65
2022/06/08 09:30:09;;;;;;;6.25;1.95;;;;;;;25.95;48.60;94384.59;5084954;28;20290;-64
2022/06/08 09:32:40;;;;;;;4.00;2.17;;;;;;;26.28;49.73;94335.22;5115551;28;20226;-62
2022/06/08 09:35:34;;;;;;;2.53;1.77;;;;;;;26.42;49.21;94341.72;5114131;28;20168;-61
2022/06/08 09:38:09;;;;;;;3.17;1.90;;;;;;;26.34;48.42;94361.13;5115755;28;20570;-61
2022/06/08 09:40:37;;;;;;;3.60;1.90;;;;;;;26.42;43.88;94511.22;5114198;28;20259;-65
2022/06/08 09:43:06;;;;;;;5.32;1.80;;;;;;;26.30;43.87;94479.16;5115620;27;20208;-61
2022/06/08 09:45:48;;;;;;;4.18;2.03;;;;;;;26.43;46.47;94375.38;5115616;28;20224;-64
2022/06/08 09:51:58;;;;;;;1.98;1.77;;;;;;;26.09;45.62;94404.97;5112028;28;20534;-61
2022/06/08 09:54:59;;;;;;;2.75;1.50;;;;;;;25.99;46.41;94368.28;5115757;28;20208;-60
2022/06/08 09:57:33;;;;;;;4.20;1.45;;;;;;;26.00;45.29;94406.31;5115351;28;20162;-63
2022/06/08 10:00:02;;;;;;;2.88;2.00;;;;;;;26.49;48.85;94283.19;5115348;28;20190;-61
2022/06/08 10:02:39;;;;;;;35.03;4.68;;;;;;;27.01;49.49;94264.66;5114859;28;20216;-61
2022/06/08 10:05:22;;;;;;;6.93;2.22;;;;;;;26.79;48.58;94285.50;5114858;28;20168;-66
2022/06/08 10:08:08;;;;;;;1.85;1.33;;;;;;;27.04;45.34;94376.44;5114697;28;20385;-61
2022/06/08 10:10:53;;;;;;;5.07;1.80;;;;;;;27.00;45.57;94364.88;5112241;28;20179;-62
2022/06/08 10:13:39;;;;;;;1.83;1.50;;;;;;;27.59;43.10;94437.38;5114584;28;20211;-64
2022/06/08 10:16:16;;;;;;;3.58;2.03;;;;;;;27.99;46.46;94296.00;5113229;28;20171;-65
2022/06/08 10:19:06;;;;;;;4.78;1.63;;;;;;;27.97;41.06;94471.38;5114937;28;20684;-62
2022/06/08 10:21:38;;;;;;;4.10;1.63;;;;;;;27.25;43.76;94349.63;5114484;28;20187;-62
2022/06/08 10:24:26;;;;;;;4.75;1.92;;;;;;;27.00;43.57;94339.59;5114717;28;20210;-61
2022/06/08 10:27:19;;;;;;;1.42;1.33;;;;;;;27.70;42.85;94375.56;5112840;28;20203;-62
2022/06/08 10:29:51;;;;;;;3.17;1.80;;;;;;;28.35;43.94;94333.75;5114234;28;20199;-65
2022/06/08 10:32:24;;;;;;;4.20;1.40;;;;;;;28.23;42.45;94370.50;5112830;28;20248;-63
2022/06/08 10:34:56;;;;;;;1.67;1.38;;;;;;;27.90;38.17;94472.53;5112808;28;20567;-64
2022/06/08 10:37:35;;;;;;;1.50;1.40;;;;;;;28.12;41.38;94358.34;5112747;28;20508;-62
2022/06/08 10:40:06;;;;;;;2.05;1.75;;;;;;;28.16;40.13;94375.13;5113927;27;20172;-60
2022/06/08 10:42:40;;;;;;;1.40;1.30;;;;;;;28.56;42.61;94307.56;5114238;28;20175;-61
2022/06/08 10:45:23;;;;;;;1.67;1.40;;;;;;;28.37;39.77;94391.81;5112839;28;20283;-64
2022/06/08 10:48:12;;;;;;;2.42;1.88;;;;;;;28.84;40.81;94340.50;5113988;28;20198;-64
2022/06/08 10:50:42;;;;;;;3.58;1.65;;;;;;;29.28;41.24;94322.78;5118771;22;20235;-62
2022/06/08 10:56:36;;;;;;;2.47;1.30;;;;;;;29.15;36.79;94394.69;5113666;28;20186;-64
2022/06/08 10:59:08;;;;;;;5.03;1.77;;;;;;;29.33;38.75;94338.53;5108104;28;20681;-63
2022/06/08 11:01:58;;;;;;;2.67;1.70;;;;;;;29.13;39.61;94291.22;5113520;28;20616;-61
2022/06/08 11:04:26;;;;;;;2.95;1.80;;;;;;;29.16;38.62;94335.28;5113798;28;20204;-62
2022/06/08 11:06:54;;;;;;;3.15;1.75;;;;;;;28.57;40.28;94269.88;5106439;28;20275;-61
2022/06/08 11:09:32;;;;;;;3.20;1.65;;;;;;;28.83;40.21;94266.41;5113908;28;20579;-60
2022/06/08 11:12:15;;;;;;;6.50;2.50;;;;;;;29.00;38.82;94316.03;5113408;28;20207;-62
2022/06/08 11:14:44;;;;;;;4.85;1.90;;;;;;;29.11;40.30;94246.19;5113708;28;20672;-65
2022/06/08 11:17:48;;;;;;;4.60;1.77;;;;;;;29.55;41.19;94226.50;5111965;28;20851;-61
2022/06/08 11:20:35;;;;;;;1.75;1.65;;;;;;;29.83;41.43;94208.53;5071068;28;20202;-62
2022/06/08 11:23:15;;;;;;;1.70;1.60;;;;;;;29.89;41.77;94200.66;5111886;28;20272;-61
2022/06/08 11:26:14;;;;;;;3.53;1.77;;;;;;;29.65;38.84;94298.09;5113357;28;20563;-60
2022/06/08 11:28:50;;;;;;;3.85;2.25;;;;;;;29.98;40.17;94252.31;5111888;28;20207;-61
2022/06/08 11:31:26;;;;;;;3.08;1.90;;;;;;;30.44;42.35;94172.63;5111849;28;20172;-62
2022/06/08 11:34:06;;;;;;;2.30;2.10;;;;;;;30.35;37.49;94297.56;5111635;28;20617;-60
2022/06/08 11:36:43;;;;;;;2.63;2.03;;;;;;;30.60;37.21;94310.69;5113203;28;20637;-64
2022/06/08 11:39:30;;;;;;;3.70;1.60;;;;;;;30.85;38.09;94267.94;5113419;28;20202;-64
2022/06/08 11:42:24;;;;;;;3.35;1.67;;;;;;;30.30;36.54;94287.03;5113252;28;20242;-64
2022/06/08 11:45:13;;;;;;;1.88;1.75;;;;;;;29.84;38.08;94257.28;5111231;28;20226;-64
2022/06/08 11:47:53;;;;;;;2.60;2.38;;;;;;;30.46;37.95;94233.53;5112553;28;20648;-64
2022/06/08 11:50:20;;;;;;;1.98;1.88;;;;;;;30.07;36.19;94292.75;5112685;28;20203;-65
2022/06/08 11:52:55;;;;;;;3.47;1.63;;;;;;;30.81;36.10;94295.72;5112766;28;20211;-65
2022/06/08 11:55:23;;;;;;;7.75;2.33;;;;;;;30.57;36.58;94271.06;5112655;28;20551;-63
2022/06/08 11:57:54;;;;;;;2.78;2.15;;;;;;;30.62;37.23;94240.34;5112723;28;20274;-61
2022/06/08 12:00:27;;;;;;;3.53;2.60;;;;;;;29.94;37.62;94221.66;5113268;28;20179;-61
2022/06/08 12:02:57;;;;;;;2.75;2.22;;;;;;;30.07;35.50;94278.84;5112916;28;20195;-63